createdAt,value
2022-12-29T00:01:07.386Z,92.30
2022-12-29T00:03:14.714Z,92.10
2022-12-29T00:05:21.695Z,92.10
2022-12-29T00:07:30.633Z,92.60
2022-12-29T00:09:38.419Z,92.50
2022-12-29T00:11:46.104Z,92.40
2022-12-29T00:14:11.107Z,92.50
2022-12-29T00:16:17.065Z,92.50
2022-12-29T00:18:23.989Z,92.80
2022-12-29T00:20:47.452Z,92.90
2022-12-29T00:23:12.548Z,92.90
2022-12-29T00:25:36.420Z,93.00
2022-12-29T00:28:06.392Z,93.20
2022-12-29T00:30:33.435Z,93.00
2022-12-29T00:32:57.203Z,92.80
2022-12-29T00:35:13.702Z,92.70
2022-12-29T00:37:41.267Z,92.80
2022-12-29T00:40:06.161Z,92.60
2022-12-29T00:42:36.382Z,92.70
2022-12-29T00:44:44.279Z,92.80
2022-12-29T00:46:51.336Z,92.90
2022-12-29T00:49:15.902Z,92.90
2022-12-29T00:51:25.024Z,92.80
2022-12-29T00:53:32.373Z,92.70
2022-12-29T00:55:43.328Z,92.40
2022-12-29T00:57:50.512Z,92.30
2022-12-29T00:59:57.385Z,92.00
2022-12-29T01:02:04.680Z,91.50
2022-12-29T01:04:12.788Z,91.40
2022-12-29T01:06:19.914Z,90.90
2022-12-29T01:08:26.878Z,90.50
2022-12-29T01:10:32.790Z,90.20
2022-12-29T01:12:46.720Z,89.30
2022-12-29T01:14:53.869Z,88.40
2022-12-29T01:17:01.558Z,87.50
2022-12-29T01:19:09.187Z,87.30
2022-12-29T01:21:16.574Z,87.30
2022-12-29T01:23:24.216Z,87.20
2022-12-29T01:25:31.253Z,85.80
2022-12-29T01:27:41.142Z,85.60
2022-12-29T01:29:48.173Z,85.10
2022-12-29T01:31:55.386Z,85.10
2022-12-29T01:34:03.045Z,84.80
2022-12-29T01:36:11.965Z,84.70
2022-12-29T01:38:18.994Z,84.40
2022-12-29T01:40:26.328Z,82.70
2022-12-29T01:42:33.206Z,81.90
2022-12-29T01:45:04.233Z,81.80
2022-12-29T01:47:12.950Z,81.50
2022-12-29T01:49:23.328Z,80.90
2022-12-29T01:51:31.844Z,80.40
2022-12-29T01:53:40.558Z,80.60
2022-12-29T01:55:52.235Z,80.70
2022-12-29T01:58:02.441Z,80.80
2022-12-29T02:00:16.019Z,80.90
2022-12-29T02:02:32.442Z,79.80
2022-12-29T02:04:46.201Z,80.30
2022-12-29T02:07:01.371Z,79.70
2022-12-29T02:09:09.217Z,79.60
2022-12-29T02:11:16.659Z,79.60
2022-12-29T02:13:24.367Z,77.60
2022-12-29T02:15:40.086Z,77.80
2022-12-29T02:17:59.755Z,78.10
2022-12-29T02:20:56.300Z,78.50
2022-12-29T02:23:23.291Z,77.50
2022-12-29T02:26:02.422Z,76.50
2022-12-29T02:28:37.765Z,75.80
2022-12-29T02:30:58.306Z,76.10
2022-12-29T02:33:17.469Z,76.30
2022-12-29T02:35:34.736Z,75.10
2022-12-29T02:37:53.912Z,75.40
2022-12-29T02:40:10.091Z,75.10
2022-12-29T02:42:26.487Z,74.60
2022-12-29T02:44:41.913Z,74.30
2022-12-29T02:46:55.767Z,73.80
2022-12-29T02:49:13.380Z,73.50
2022-12-29T02:51:25.577Z,73.00
2022-12-29T02:53:51.654Z,73.10
2022-12-29T02:55:59.241Z,72.90
2022-12-29T02:58:21.750Z,72.60
2022-12-29T03:00:30.097Z,71.40
2022-12-29T03:03:13.991Z,70.80
2022-12-29T03:05:37.817Z,70.10
2022-12-29T03:07:51.898Z,69.60
2022-12-29T03:10:07.543Z,69.40
2022-12-29T03:12:23.873Z,69.20
2022-12-29T03:14:52.909Z,69.20
2022-12-29T03:17:06.166Z,67.00
2022-12-29T03:19:23.818Z,66.80
2022-12-29T03:21:54.811Z,66.70
2022-12-29T03:24:02.494Z,66.90
2022-12-29T03:26:15.159Z,65.20
2022-12-29T03:28:26.958Z,65.10
2022-12-29T03:30:36.774Z,65.30
2022-12-29T03:32:48.943Z,65.60
2022-12-29T03:34:57.866Z,64.60
2022-12-29T03:37:10.836Z,64.10
2022-12-29T03:39:18.577Z,65.50
2022-12-29T03:41:29.944Z,65.40
2022-12-29T03:43:38.779Z,65.40
2022-12-29T03:45:46.392Z,65.10
2022-12-29T03:47:53.552Z,64.30
2022-12-29T03:50:02.535Z,63.80
2022-12-29T03:52:13.699Z,63.80
2022-12-29T03:54:24.567Z,63.70
2022-12-29T03:56:33.494Z,63.80
2022-12-29T03:58:42.316Z,63.30
2022-12-29T04:00:53.841Z,62.20
2022-12-29T04:03:01.242Z,62.30
2022-12-29T04:05:10.816Z,63.00
2022-12-29T04:07:18.355Z,63.20
2022-12-29T04:09:25.249Z,61.60
2022-12-29T04:11:34.577Z,60.60
2022-12-29T04:13:44.115Z,61.50
2022-12-29T04:15:55.170Z,61.20
2022-12-29T04:18:03.020Z,61.00
2022-12-29T04:20:29.596Z,61.10
2022-12-29T04:22:38.119Z,59.70
2022-12-29T04:24:45.514Z,60.20
2022-12-29T04:26:54.735Z,60.60
2022-12-29T04:29:27.424Z,60.40
2022-12-29T04:32:00.155Z,58.90
2022-12-29T04:34:09.575Z,58.10
2022-12-29T04:36:18.553Z,58.00
2022-12-29T04:38:27.275Z,57.70
2022-12-29T04:40:34.913Z,58.20
2022-12-29T04:42:42.301Z,58.40
2022-12-29T04:44:49.430Z,58.60
2022-12-29T04:47:22.939Z,58.50
2022-12-29T04:49:36.527Z,57.90
2022-12-29T04:52:23.445Z,57.80
2022-12-29T04:54:31.629Z,57.80
2022-12-29T04:56:50.031Z,58.20
2022-12-29T04:58:57.875Z,57.80
2022-12-29T05:01:05.369Z,56.60
2022-12-29T05:03:12.477Z,56.60
2022-12-29T05:05:22.186Z,55.40
2022-12-29T05:07:32.845Z,54.80
2022-12-29T05:09:41.502Z,55.90
2022-12-29T05:11:48.539Z,56.30
2022-12-29T05:13:55.774Z,56.00
2022-12-29T05:16:02.716Z,55.90
2022-12-29T05:18:10.193Z,56.10
2022-12-29T05:20:17.063Z,56.20
2022-12-29T05:22:24.653Z,55.10
2022-12-29T05:24:33.569Z,55.20
2022-12-29T05:26:40.962Z,54.50
2022-12-29T05:29:06.562Z,55.20
2022-12-29T05:31:13.979Z,55.40
2022-12-29T05:33:21.246Z,55.40
2022-12-29T05:35:30.429Z,55.30
2022-12-29T05:37:37.809Z,54.50
2022-12-29T05:39:46.837Z,54.00
2022-12-29T05:41:54.478Z,53.80
2022-12-29T05:44:27.973Z,54.10
2022-12-29T05:46:58.820Z,54.00
2022-12-29T05:49:41.323Z,54.40
2022-12-29T05:51:57.667Z,54.40
2022-12-29T05:54:04.652Z,54.20
2022-12-29T05:56:13.929Z,54.10
2022-12-29T06:00:43.036Z,53.80
2022-12-29T06:02:50.835Z,53.80
2022-12-29T06:04:58.627Z,53.80
2022-12-29T06:07:06.014Z,52.70
2022-12-29T06:09:21.848Z,53.40
2022-12-29T06:11:30.564Z,53.50
2022-12-29T06:13:39.544Z,53.40
2022-12-29T06:15:47.028Z,53.30
2022-12-29T06:17:54.412Z,53.40
2022-12-29T06:20:02.877Z,53.10
2022-12-29T06:22:12.876Z,52.60
2022-12-29T06:24:38.439Z,52.40
2022-12-29T06:26:47.474Z,52.60
2022-12-29T06:28:54.386Z,51.90
2022-12-29T06:31:04.186Z,51.80
2022-12-29T06:33:11.206Z,51.50
2022-12-29T06:35:18.601Z,51.10
2022-12-29T06:37:29.571Z,52.00
2022-12-29T06:39:36.909Z,52.30
2022-12-29T06:41:48.840Z,52.00
2022-12-29T06:44:16.046Z,51.10
2022-12-29T06:46:41.655Z,51.80
2022-12-29T06:48:49.000Z,52.00
2022-12-29T06:50:56.053Z,52.30
2022-12-29T06:53:03.001Z,52.50
2022-12-29T06:55:10.696Z,52.60
2022-12-29T06:57:19.457Z,51.60
2022-12-29T06:59:26.591Z,51.60
2022-12-29T07:01:34.044Z,51.80
2022-12-29T07:03:41.315Z,52.00
2022-12-29T07:05:48.388Z,52.00
2022-12-29T07:07:55.673Z,51.60
2022-12-29T07:12:29.228Z,52.10
2022-12-29T07:14:42.326Z,52.30
2022-12-29T07:17:04.542Z,51.90
2022-12-29T07:19:11.428Z,51.00
2022-12-29T07:21:18.751Z,50.50
2022-12-29T07:23:25.778Z,50.90
2022-12-29T07:25:33.268Z,51.20
2022-12-29T07:27:41.780Z,50.40
2022-12-29T07:29:49.013Z,49.30
2022-12-29T07:31:55.986Z,50.00
2022-12-29T07:34:03.223Z,50.80
2022-12-29T07:36:11.124Z,50.80
2022-12-29T07:38:18.457Z,51.10
2022-12-29T07:40:25.289Z,51.10
2022-12-29T07:42:32.426Z,50.90
2022-12-29T07:44:41.745Z,50.90
2022-12-29T07:47:07.409Z,51.00
2022-12-29T07:49:14.433Z,51.50
2022-12-29T07:51:21.668Z,51.10
2022-12-29T07:53:28.754Z,51.30
2022-12-29T07:55:35.878Z,51.10
2022-12-29T07:57:42.760Z,50.80
2022-12-29T07:59:51.874Z,50.50
2022-12-29T08:01:58.793Z,50.60
2022-12-29T08:04:06.351Z,51.00
2022-12-29T08:06:14.906Z,51.00
2022-12-29T08:08:22.559Z,50.60
2022-12-29T08:10:29.628Z,51.20
2022-12-29T08:12:36.964Z,51.70
2022-12-29T08:14:43.793Z,51.40
2022-12-29T08:16:52.682Z,51.30
2022-12-29T08:19:00.970Z,51.40
2022-12-29T08:21:08.716Z,51.10
2022-12-29T08:23:15.646Z,51.30
2022-12-29T08:25:23.278Z,51.90
2022-12-29T08:27:31.386Z,52.00
2022-12-29T08:29:38.461Z,50.80
2022-12-29T08:31:45.475Z,51.00
2022-12-29T08:33:57.177Z,50.80
2022-12-29T08:36:04.973Z,51.60
2022-12-29T08:38:13.333Z,51.30
2022-12-29T08:40:20.563Z,51.00
2022-12-29T08:42:30.920Z,51.30
2022-12-29T08:44:37.845Z,51.50
2022-12-29T08:46:45.231Z,51.90
2022-12-29T08:48:52.259Z,51.10
2022-12-29T08:51:01.350Z,51.40
2022-12-29T08:53:08.415Z,51.70
2022-12-29T08:55:15.975Z,52.30
2022-12-29T08:57:23.390Z,52.40
2022-12-29T08:59:54.384Z,52.50
2022-12-29T09:02:02.467Z,51.90
2022-12-29T09:04:17.922Z,52.10
2022-12-29T09:06:27.296Z,52.30
2022-12-29T09:08:36.882Z,52.50
2022-12-29T09:10:44.118Z,52.60
2022-12-29T09:12:50.989Z,52.70
2022-12-29T09:14:58.105Z,52.70
2022-12-29T09:17:21.331Z,52.50
2022-12-29T09:19:28.605Z,53.00
2022-12-29T09:21:37.329Z,53.00
2022-12-29T09:26:07.519Z,52.40
2022-12-29T09:28:14.645Z,51.40
2022-12-29T09:30:21.593Z,52.00
2022-12-29T09:32:33.433Z,52.60
2022-12-29T09:34:41.021Z,52.70
2022-12-29T09:36:49.978Z,53.00
2022-12-29T09:38:58.335Z,52.60
2022-12-29T09:41:10.125Z,52.80
2022-12-29T09:43:44.805Z,52.90
2022-12-29T09:45:59.254Z,52.70
2022-12-29T09:48:09.890Z,53.10
2022-12-29T09:50:25.564Z,52.70
2022-12-29T09:52:39.587Z,52.90
2022-12-29T09:55:00.517Z,53.20
2022-12-29T09:57:17.556Z,53.30
2022-12-29T09:59:28.561Z,53.60
2022-12-29T10:01:40.872Z,53.90
2022-12-29T10:03:51.692Z,53.90
2022-12-29T10:06:06.957Z,54.10
2022-12-29T10:08:31.657Z,54.10
2022-12-29T10:10:44.429Z,54.30
2022-12-29T10:13:12.035Z,54.20
2022-12-29T10:15:33.506Z,54.10
2022-12-29T10:17:48.103Z,54.50
2022-12-29T10:20:16.439Z,54.70
2022-12-29T10:22:35.083Z,54.80
2022-12-29T10:24:46.154Z,54.90
2022-12-29T10:26:55.586Z,55.20
2022-12-29T10:29:07.689Z,55.40
2022-12-29T10:31:22.152Z,55.20
2022-12-29T10:33:35.909Z,55.30
2022-12-29T10:35:45.256Z,55.40
2022-12-29T10:37:57.555Z,55.70
2022-12-29T10:40:23.273Z,55.60
2022-12-29T10:42:32.653Z,56.00
2022-12-29T10:44:40.040Z,56.00
2022-12-29T10:46:52.148Z,56.10
2022-12-29T10:48:59.526Z,56.00
2022-12-29T10:51:08.762Z,56.30
2022-12-29T10:53:23.221Z,56.10
2022-12-29T10:55:36.642Z,56.20
2022-12-29T10:57:47.705Z,56.30
2022-12-29T10:59:54.574Z,56.50
2022-12-29T11:02:15.742Z,56.60
2022-12-29T11:04:46.835Z,56.70
2022-12-29T11:06:54.534Z,56.60
2022-12-29T11:09:03.181Z,56.90
2022-12-29T11:11:13.960Z,56.80
2022-12-29T11:13:23.037Z,56.90
2022-12-29T11:15:30.583Z,57.30
2022-12-29T11:17:48.810Z,57.50
2022-12-29T11:19:55.895Z,57.60
2022-12-29T11:22:18.491Z,57.60
2022-12-29T11:24:28.234Z,57.80
2022-12-29T11:26:37.864Z,57.60
2022-12-29T11:28:46.127Z,57.90
2022-12-29T11:31:04.953Z,57.90
2022-12-29T11:33:13.751Z,57.70
2022-12-29T11:35:35.063Z,57.90
2022-12-29T11:37:44.500Z,58.00
2022-12-29T11:39:58.724Z,57.90
2022-12-29T11:42:11.510Z,57.90
2022-12-29T11:44:18.949Z,58.00
2022-12-29T11:46:29.531Z,58.00
2022-12-29T11:48:43.013Z,57.90
2022-12-29T11:50:57.983Z,57.90
2022-12-29T11:53:08.313Z,57.80
2022-12-29T11:55:24.544Z,58.30
2022-12-29T11:57:34.751Z,58.10
2022-12-29T11:59:53.299Z,58.20
2022-12-29T12:02:02.618Z,58.20
2022-12-29T12:04:14.031Z,58.30
2022-12-29T12:06:26.453Z,58.40
2022-12-29T12:08:39.963Z,58.60
2022-12-29T12:10:51.942Z,58.90
2022-12-29T12:13:10.489Z,58.70
2022-12-29T12:15:23.558Z,58.50
2022-12-29T12:17:41.239Z,58.60
2022-12-29T12:19:52.567Z,58.60
2022-12-29T12:22:05.105Z,58.60
2022-12-29T12:24:27.664Z,58.80
2022-12-29T12:26:39.451Z,58.70
2022-12-29T12:28:55.655Z,58.60
2022-12-29T12:31:03.600Z,58.80
2022-12-29T12:33:18.100Z,58.80
2022-12-29T12:35:35.779Z,58.70
2022-12-29T12:38:01.605Z,58.80
2022-12-29T12:40:31.203Z,58.60
2022-12-29T12:42:51.752Z,58.40
2022-12-29T12:45:24.377Z,58.40
2022-12-29T12:47:55.420Z,58.40
2022-12-29T12:50:44.478Z,58.50
2022-12-29T12:53:10.658Z,58.40
2022-12-29T12:55:38.325Z,58.60
2022-12-29T12:57:57.385Z,58.70
2022-12-29T13:00:12.655Z,58.60
2022-12-29T13:02:32.639Z,58.80
2022-12-29T13:05:02.701Z,59.00
2022-12-29T13:07:19.253Z,59.10
2022-12-29T13:09:42.919Z,59.00
2022-12-29T13:12:05.886Z,59.10
2022-12-29T13:14:25.396Z,58.80
2022-12-29T13:16:40.941Z,58.80
2022-12-29T13:18:56.348Z,58.90
2022-12-29T13:21:11.410Z,59.10
2022-12-29T13:23:27.865Z,58.90
2022-12-29T13:25:41.851Z,59.00
2022-12-29T13:27:56.303Z,58.80
2022-12-29T13:30:07.582Z,58.90
2022-12-29T13:32:29.306Z,59.10
2022-12-29T13:34:44.732Z,59.40
2022-12-29T13:36:56.673Z,59.20
2022-12-29T13:39:10.458Z,59.30
2022-12-29T13:41:22.308Z,59.00
2022-12-29T13:43:31.425Z,59.00
2022-12-29T13:45:40.124Z,59.20
2022-12-29T13:47:53.782Z,59.20
2022-12-29T13:50:04.436Z,59.30
2022-12-29T13:52:17.561Z,59.50
2022-12-29T13:54:33.451Z,59.40
2022-12-29T13:56:44.519Z,59.60
2022-12-29T13:58:58.183Z,59.70
2022-12-29T14:01:12.862Z,59.90
2022-12-29T14:03:47.682Z,60.10
2022-12-29T14:06:21.247Z,60.20
2022-12-29T14:08:28.345Z,60.20
2022-12-29T14:10:38.953Z,60.30
2022-12-29T14:12:47.446Z,60.50
2022-12-29T14:14:55.245Z,60.70
2022-12-29T14:17:15.577Z,61.00
2022-12-29T14:19:28.349Z,60.80
2022-12-29T14:21:37.162Z,61.00
2022-12-29T14:23:46.331Z,61.30
2022-12-29T14:26:17.697Z,61.10
2022-12-29T14:28:29.364Z,61.10
2022-12-29T14:31:03.580Z,60.90
2022-12-29T14:33:17.337Z,60.70
2022-12-29T14:35:47.808Z,61.00
2022-12-29T14:38:13.631Z,61.00
2022-12-29T14:40:24.173Z,60.90
2022-12-29T14:42:33.671Z,61.10
2022-12-29T14:44:52.073Z,60.90
2022-12-29T14:47:04.006Z,60.60
2022-12-29T14:49:21.585Z,60.90
2022-12-29T14:51:40.335Z,60.60
2022-12-29T14:53:50.619Z,60.50
2022-12-29T14:56:01.354Z,60.80
2022-12-29T14:58:13.916Z,60.70
2022-12-29T15:00:24.231Z,60.60
2022-12-29T15:02:40.343Z,60.70
2022-12-29T15:04:48.667Z,60.90
2022-12-29T15:06:58.469Z,60.90
2022-12-29T15:09:11.630Z,60.90
2022-12-29T15:11:22.099Z,61.10
2022-12-29T15:13:41.149Z,60.80
2022-12-29T15:15:48.642Z,61.10
2022-12-29T15:17:55.780Z,61.30
2022-12-29T15:20:05.067Z,61.30
2022-12-29T15:22:15.147Z,61.40
2022-12-29T15:24:22.644Z,61.60
2022-12-29T15:26:42.265Z,61.60
2022-12-29T15:28:50.506Z,61.70
2022-12-29T15:31:05.585Z,61.80
2022-12-29T15:33:22.800Z,61.80
2022-12-29T15:35:33.567Z,61.80
2022-12-29T15:37:42.652Z,62.00
2022-12-29T15:39:50.223Z,62.10
2022-12-29T15:42:04.383Z,62.30
2022-12-29T15:44:18.525Z,62.70
2022-12-29T15:46:25.782Z,62.60
2022-12-29T15:48:34.428Z,62.60
2022-12-29T15:50:45.048Z,62.50
2022-12-29T15:52:54.215Z,62.70
2022-12-29T15:55:02.161Z,62.70
2022-12-29T15:57:19.279Z,62.80
2022-12-29T15:59:31.026Z,63.00
2022-12-29T16:01:40.354Z,63.30
2022-12-29T16:03:49.336Z,63.40
2022-12-29T16:05:58.499Z,63.50
2022-12-29T16:08:08.549Z,63.60
2022-12-29T16:10:32.220Z,63.70
2022-12-29T16:12:40.873Z,64.10
2022-12-29T16:17:14.639Z,64.20
2022-12-29T16:19:26.645Z,64.30
2022-12-29T16:21:37.107Z,64.40
2022-12-29T16:23:51.588Z,64.60
2022-12-29T16:26:00.493Z,64.80
2022-12-29T16:28:18.311Z,64.80
2022-12-29T16:30:33.097Z,64.70
2022-12-29T16:32:51.317Z,64.80
2022-12-29T16:35:14.818Z,65.40
2022-12-29T16:37:34.196Z,65.50
2022-12-29T16:39:43.675Z,65.70
2022-12-29T16:41:50.560Z,66.10
2022-12-29T16:44:17.145Z,65.90
2022-12-29T16:46:30.973Z,66.10
2022-12-29T16:48:40.463Z,66.10
2022-12-29T16:50:48.617Z,66.30
2022-12-29T16:52:55.864Z,66.70
2022-12-29T16:55:05.283Z,67.20
2022-12-29T16:57:13.184Z,67.80
2022-12-29T16:59:35.390Z,67.80
2022-12-29T17:04:14.274Z,68.60
2022-12-29T17:06:22.381Z,68.30
2022-12-29T17:08:29.384Z,68.50
2022-12-29T17:10:51.517Z,68.70
2022-12-29T17:12:58.353Z,69.10
2022-12-29T17:15:10.334Z,68.60
2022-12-29T17:17:22.051Z,68.60
2022-12-29T17:19:31.149Z,68.60
2022-12-29T17:21:37.945Z,68.90
2022-12-29T17:23:45.282Z,68.50
2022-12-29T17:25:53.870Z,68.90
2022-12-29T17:28:03.566Z,69.10
2022-12-29T17:30:16.272Z,69.50
2022-12-29T17:32:25.046Z,69.50
2022-12-29T17:34:37.153Z,69.60
2022-12-29T17:36:44.254Z,69.40
2022-12-29T17:38:51.174Z,69.30
2022-12-29T17:41:00.118Z,69.20
2022-12-29T17:43:06.860Z,69.10
2022-12-29T17:45:18.575Z,69.40
2022-12-29T17:47:25.707Z,69.90
2022-12-29T17:49:35.137Z,70.50
2022-12-29T17:51:43.297Z,70.60
2022-12-29T17:53:51.349Z,70.40
2022-12-29T17:56:01.196Z,70.70
2022-12-29T17:58:20.617Z,70.20
2022-12-29T18:00:29.021Z,69.90
2022-12-29T18:02:36.498Z,69.60
2022-12-29T18:04:43.485Z,69.30
2022-12-29T18:06:51.013Z,69.10
2022-12-29T18:08:57.899Z,69.00
2022-12-29T18:11:06.891Z,69.10
2022-12-29T18:13:22.994Z,69.30
2022-12-29T18:15:32.452Z,69.10
2022-12-29T18:17:39.272Z,68.70
2022-12-29T18:19:46.455Z,68.20
2022-12-29T18:21:53.381Z,68.20
2022-12-29T18:24:00.665Z,67.80
2022-12-29T18:26:17.133Z,67.60
2022-12-29T18:28:27.623Z,67.30
2022-12-29T18:30:34.549Z,67.10
2022-12-29T18:32:41.729Z,66.90
2022-12-29T18:34:49.377Z,67.30
2022-12-29T18:36:56.759Z,66.90
2022-12-29T18:39:03.687Z,66.90
2022-12-29T18:41:19.159Z,66.70
2022-12-29T18:43:26.393Z,67.00
2022-12-29T18:45:36.044Z,66.90
2022-12-29T18:47:42.910Z,67.00
2022-12-29T18:49:50.089Z,67.10
2022-12-29T18:51:57.116Z,67.30
2022-12-29T18:54:05.374Z,67.50
2022-12-29T18:56:14.272Z,67.40
2022-12-29T18:58:21.990Z,67.30
2022-12-29T19:00:29.132Z,67.40
2022-12-29T19:02:36.405Z,67.10
2022-12-29T19:04:43.329Z,67.20
2022-12-29T19:06:50.416Z,67.20
2022-12-29T19:08:57.333Z,67.40
2022-12-29T19:11:04.786Z,67.10
2022-12-29T19:13:18.935Z,67.40
2022-12-29T19:15:28.362Z,67.50
2022-12-29T19:17:35.328Z,67.60
2022-12-29T19:19:42.561Z,67.80
2022-12-29T19:21:49.588Z,68.10
2022-12-29T19:23:56.853Z,68.40
2022-12-29T19:26:03.752Z,68.10
2022-12-29T19:28:18.421Z,68.00
2022-12-29T19:30:25.789Z,68.40
2022-12-29T19:32:33.073Z,68.40
2022-12-29T19:34:40.159Z,68.40
2022-12-29T19:36:47.999Z,68.70
2022-12-29T19:38:54.976Z,68.80
2022-12-29T19:41:02.263Z,69.30
2022-12-29T19:43:09.085Z,68.90
2022-12-29T19:45:18.735Z,69.20
2022-12-29T19:47:30.074Z,69.80
2022-12-29T19:49:39.286Z,69.40
2022-12-29T19:51:46.104Z,69.10
2022-12-29T19:53:53.392Z,69.50
2022-12-29T19:56:00.367Z,69.70
2022-12-29T19:58:07.548Z,69.70
2022-12-29T20:00:17.750Z,69.60
2022-12-29T20:02:27.162Z,69.90
2022-12-29T20:04:34.369Z,70.10
2022-12-29T20:06:41.607Z,70.30
2022-12-29T20:08:48.644Z,69.80
2022-12-29T20:11:02.168Z,70.00
2022-12-29T20:13:09.440Z,70.10
2022-12-29T20:15:18.673Z,70.60
2022-12-29T20:17:45.715Z,70.30
2022-12-29T20:19:53.313Z,70.50
2022-12-29T20:22:00.159Z,71.50
2022-12-29T20:24:07.467Z,71.70
2022-12-29T20:26:18.028Z,71.80
2022-12-29T20:28:25.365Z,71.90
2022-12-29T20:30:33.916Z,71.80
2022-12-29T20:32:41.268Z,71.70
2022-12-29T20:34:48.750Z,71.60
2022-12-29T20:36:55.933Z,71.60
2022-12-29T20:39:04.037Z,72.40
2022-12-29T20:41:11.541Z,72.40
2022-12-29T20:43:19.628Z,71.70
2022-12-29T20:45:27.236Z,71.30
2022-12-29T20:47:35.888Z,71.50
2022-12-29T20:49:43.066Z,71.80
2022-12-29T20:52:07.016Z,71.80
2022-12-29T20:54:14.836Z,71.80
2022-12-29T20:56:23.710Z,71.70
2022-12-29T20:58:30.839Z,71.90
2022-12-29T21:00:37.765Z,71.80
2022-12-29T21:02:46.717Z,72.40
2022-12-29T21:07:20.818Z,72.40
2022-12-29T21:09:27.701Z,71.80
2022-12-29T21:11:34.870Z,71.60
2022-12-29T21:13:41.847Z,71.80
2022-12-29T21:15:49.694Z,72.30
2022-12-29T21:17:58.462Z,73.10
2022-12-29T21:20:06.260Z,73.70
2022-12-29T21:22:13.387Z,74.30
2022-12-29T21:24:20.828Z,74.60
2022-12-29T21:26:28.370Z,74.80
2022-12-29T21:28:35.222Z,75.40
2022-12-29T21:30:42.853Z,76.10
2022-12-29T21:32:50.015Z,76.30
2022-12-29T21:34:59.218Z,76.50
2022-12-29T21:37:06.122Z,76.60
2022-12-29T21:39:13.872Z,76.20
2022-12-29T21:41:21.299Z,76.00
2022-12-29T21:43:28.430Z,76.20
2022-12-29T21:45:35.168Z,76.50
2022-12-29T21:47:58.767Z,76.50
2022-12-29T21:50:07.637Z,76.40
2022-12-29T21:52:14.820Z,76.50
2022-12-29T21:54:38.848Z,77.30
2022-12-29T21:56:47.465Z,77.30
2022-12-29T21:59:11.948Z,77.50
2022-12-29T22:01:35.531Z,77.70
2022-12-29T22:03:59.548Z,77.90
2022-12-29T22:06:29.819Z,78.30
2022-12-29T22:08:53.429Z,78.50
2022-12-29T22:11:17.305Z,78.00
2022-12-29T22:13:24.181Z,78.50
2022-12-29T22:15:32.475Z,78.80
2022-12-29T22:17:42.434Z,78.80
2022-12-29T22:19:53.815Z,79.30
2022-12-29T22:22:02.530Z,79.40
2022-12-29T22:24:11.299Z,79.90
2022-12-29T22:26:19.163Z,79.90
2022-12-29T22:28:26.694Z,79.90
2022-12-29T22:30:33.663Z,80.00
2022-12-29T22:32:40.925Z,80.00
2022-12-29T22:34:47.777Z,80.40
2022-12-29T22:36:54.900Z,80.70
2022-12-29T22:39:03.674Z,80.70
2022-12-29T22:41:10.798Z,81.00
2022-12-29T22:43:17.673Z,81.00
2022-12-29T22:45:24.955Z,81.00
2022-12-29T22:47:31.883Z,81.10
2022-12-29T22:49:39.065Z,80.90
2022-12-29T22:51:46.092Z,81.40
2022-12-29T22:53:53.599Z,81.70
2022-12-29T22:56:08.605Z,81.90
2022-12-29T22:58:15.777Z,82.10
2022-12-29T23:00:22.708Z,82.00
2022-12-29T23:02:31.432Z,82.80
2022-12-29T23:07:05.648Z,82.90
2022-12-29T23:09:14.368Z,83.80
2022-12-29T23:11:23.038Z,83.40
2022-12-29T23:13:29.982Z,83.30
2022-12-29T23:15:37.268Z,83.40
2022-12-29T23:17:44.172Z,83.70
2022-12-29T23:19:51.403Z,84.20
2022-12-29T23:21:58.380Z,84.20
2022-12-29T23:24:08.784Z,84.30
2022-12-29T23:26:16.292Z,84.50
2022-12-29T23:28:24.837Z,84.40
2022-12-29T23:30:32.192Z,84.20
2022-12-29T23:32:39.098Z,84.60
2022-12-29T23:34:46.190Z,84.40
2022-12-29T23:36:53.720Z,84.50
2022-12-29T23:39:00.851Z,84.10
2022-12-29T23:41:08.082Z,84.00
2022-12-29T23:43:15.213Z,83.80
2022-12-29T23:45:23.927Z,83.80
2022-12-29T23:47:31.162Z,83.40
2022-12-29T23:49:38.031Z,84.00
2022-12-29T23:51:45.228Z,84.70
2022-12-29T23:53:52.346Z,85.10
2022-12-29T23:55:59.792Z,85.30
2022-12-29T23:58:06.762Z,85.30
